Latest Weather Observations for Forbes

IDN60801

Issued at 6:23 pm EST Saturday 9 May 2026 (issued every 10 minutes, with the page automatically refreshed every 10 minutes)

About weather observations | Map of weather stations | Latest weather observations for NSW | Other Formats
Station Details ID: 065103 Name: FORBES AIRPORT AWS Lat: -33.36 Lon: 147.92 Height: 230.4 m
Data from the previous 72 hours. | See also: Recent months at Forbes
Date/Time
EST
Temp
°C
App
Temp
°C
Dew
Point
°C
Rel
Hum
%
Delta-T
°C
Wind Press
QNH
hPa
Press
MSL
hPa
Rain since
9am
mm
Dir  Spd
km/h
Gust
km/h
Spd
kts
Gust
kts
09/06:00pm 13.0 12.1 9.1 77 2.0 SSW 4 6 2 3 1025.1 1025.1 0.0
09/05:30pm 15.4 14.3 8.4 63 3.6 SSW 4 6 2 3 1024.8 1024.8 0.0
09/05:00pm 16.6 15.1 8.3 58 4.3 SSW 6 7 3 4 1024.6 1024.6 0.0
09/04:30pm 17.6 15.5 8.2 54 4.9 SSW 9 13 5 7 1024.4 1024.4 0.0
09/04:00pm 18.3 16.7 8.6 53 5.1 SW 7 13 4 7 1024.3 1024.3 0.0
09/03:30pm 18.2 16.2 8.5 53 5.1 WSW 9 15 5 8 1024.3 1024.3 0.0
09/03:00pm 18.2 16.2 8.7 54 5.0 SW 9 13 5 7 1024.3 1024.3 0.0
09/02:30pm 18.7 17.2 8.4 51 5.4 SW 6 13 3 7 1024.2 1024.2 0.0
09/02:00pm 18.1 16.5 8.9 55 4.8 SW 7 17 4 9 1024.3 1024.3 0.0
09/01:30pm 17.9 16.4 9.3 57 4.5 SW 7 13 4 7 1024.5 1024.5 0.0
09/01:00pm 16.9 15.4 9.1 60 4.1 SSE 7 15 4 8 1024.6 1024.6 0.0
09/12:30pm 16.7 15.4 9.1 61 4.0 S 6 11 3 6 1025.0 1025.0 0.0
09/12:00pm 16.1 14.6 9.1 63 3.6 SW 7 13 4 7 1025.5 1025.5 0.0
09/11:30am 15.6 14.4 9.7 68 3.1 SSW 6 9 3 5 1025.9 1026.0 0.0
09/11:00am 14.7 13.5 9.5 71 2.7 S 6 13 3 7 1026.1 1026.2 0.0
09/10:30am 13.9 13.3 9.1 73 2.5 SE 2 7 1 4 1026.3 1026.4 0.0
09/10:00am 13.2 12.8 9.8 80 1.8 SW 2 7 1 4 1026.4 1026.5 0.0
09/09:30am 11.8 11.3 9.2 84 1.3 WSW 2 6 1 3 1026.2 1026.3 0.0
09/09:00am 11.7 11.6 9.6 87 1.1 CALM 0 0 0 0 1026.4 1026.5 0.0
09/08:30am 9.9 9.5 9.8 99 0.1 N 2 4 1 2 1026.3 1026.4 0.0
09/08:00am 8.2 7.8 8.1 99 0.0 CALM 0 0 0 0 1025.8 1025.9 0.0
09/07:30am 5.6 4.6 5.5 99 0.0 CALM 0 0 0 0 1025.8 1025.9 0.0
09/07:00am 4.9 3.7 4.8 99 0.0 CALM 0 0 0 0 1025.3 1025.3 0.0
09/06:30am 5.1 4.0 5.0 99 0.0 CALM 0 0 0 0 1025.0 1025.0 0.0
09/06:00am 5.4 4.3 5.3 99 0.0 CALM 0 0 0 0 1024.7 1024.7 0.0
09/05:30am 4.8 3.2 4.7 99 0.0 N 2 4 1 2 1024.6 1024.6 0.0
09/05:00am 5.2 3.3 5.1 99 0.0 NNW 4 6 2 3 1024.3 1024.3 0.0
09/04:30am 5.0 3.0 4.4 96 0.3 N 4 7 2 4 1024.2 1024.2 0.0
09/04:00am 5.7 4.5 4.7 93 0.4 CALM 0 0 0 0 1024.2 1024.2 0.0
09/03:30am 8.3 6.9 7.4 94 0.4 SE 4 6 2 3 1024.2 1024.2 0.0
09/03:00am 8.2 6.4 7.0 92 0.6 S 6 7 3 4 1024.2 1024.2 0.0
09/02:30am 8.6 7.9 7.1 90 0.7 CALM 0 0 0 0 1024.2 1024.2 0.0
09/02:00am 9.3 8.9 8.1 92 0.6 CALM 0 0 0 0 1024.1 1024.1 0.0
09/01:30am 8.6 8.2 8.3 98 0.1 CALM 0 0 0 0 1024.1 1024.1 0.0
09/01:00am 7.8 7.2 7.2 96 0.3 CALM 0 0 0 0 1024.0 1024.0 0.0
09/12:30am 7.7 7.0 6.8 94 0.4 CALM 0 0 0 0 1024.1 1024.1 0.0
09/12:00am 9.4 9.0 8.3 93 0.5 CALM 0 0 0 0 1024.2 1024.2 0.0
 
Date/Time
EST
Temp
°C
App
Temp
°C
Dew
Point
°C
Rel
Hum
%
Delta-T
°C
Wind Press
QNH
hPa
Press
MSL
hPa
Rain since
9am
mm
Dir  Spd
km/h
Gust
km/h
Spd
kts
Gust
kts
08/11:30pm 9.5 9.3 9.0 97 0.2 CALM 0 0 0 0 1024.4 1024.4 0.0
08/11:00pm 9.3 9.0 8.7 96 0.3 CALM 0 0 0 0 1024.6 1024.6 0.0
08/10:30pm 9.2 9.0 8.9 98 0.1 CALM 0 0 0 0 1024.8 1024.8 0.0
08/10:00pm 9.1 8.9 9.0 99 0.0 CALM 0 0 0 0 1024.9 1024.9 0.0
08/09:30pm 8.7 8.3 8.4 98 0.1 CALM 0 0 0 0 1024.7 1024.7 0.0
08/09:00pm 8.4 7.8 7.5 94 0.4 CALM 0 0 0 0 1024.5 1024.5 0.0
08/08:30pm 8.7 7.0 7.5 92 0.6 W 6 7 3 4 1024.3 1024.3 0.0
08/08:00pm 9.6 8.0 7.9 89 0.8 W 6 7 3 4 1024.2 1024.2 0.0
08/07:30pm 10.4 8.8 8.0 85 1.2 W 6 7 3 4 1024.0 1024.0 0.0
08/07:00pm 11.8 10.1 8.5 80 1.6 W 7 9 4 5 1023.8 1023.8 0.0
08/06:30pm 12.2 9.8 8.5 78 1.9 W 11 13 6 7 1023.2 1023.2 0.0
08/06:00pm 13.0 11.0 8.5 74 2.3 WSW 9 13 5 7 1023.2 1023.2 0.0
08/05:30pm 13.8 10.9 8.2 69 2.8 WSW 13 19 7 10 1023.0 1023.0 0.0
08/05:00pm 14.2 11.4 8.4 68 2.9 SW 13 17 7 9 1022.9 1022.9 0.0
08/04:30pm 15.1 11.1 8.1 63 3.6 WSW 19 28 10 15 1022.7 1022.7 0.0
08/04:00pm 15.2 11.6 8.4 64 3.5 SW 17 22 9 12 1022.9 1022.9 0.0
08/03:30pm 15.6 12.8 8.6 63 3.6 SW 13 20 7 11 1022.7 1022.7 0.0
08/03:00pm 15.6 11.4 8.4 62 3.7 SW 20 28 11 15 1022.6 1022.6 0.0
08/02:30pm 15.6 12.9 9.1 65 3.4 SW 13 19 7 10 1022.5 1022.5 0.0
08/02:00pm 15.4 12.7 9.1 66 3.3 WSW 13 20 7 11 1022.5 1022.5 0.0
08/01:30pm 15.3 12.6 9.0 66 3.3 W 13 19 7 10 1022.8 1022.8 0.0
08/01:00pm 13.9 11.5 8.5 70 2.7 W 11 17 6 9 1023.2 1023.2 0.0
08/12:30pm 13.4 10.0 7.8 69 2.8 W 15 22 8 12 1023.6 1023.6 0.0
08/12:00pm 13.3 10.1 8.4 72 2.5 WSW 15 22 8 12 1024.1 1024.1 0.0
08/11:30am 12.4 9.0 7.7 73 2.3 WSW 15 22 8 12 1024.5 1024.5 0.0
08/11:00am 11.6 8.5 7.3 75 2.1 W 13 19 7 10 1024.8 1024.8 0.0
08/10:30am 10.8 8.4 6.9 77 1.9 WSW 9 13 5 7 1025.1 1025.1 0.0
08/10:00am 9.5 7.2 5.9 78 1.7 W 7 11 4 6 1025.3 1025.3 0.0
08/09:30am 8.9 5.8 5.5 79 1.6 WSW 11 13 6 7 1025.3 1025.3 0.0
08/09:00am 8.4 5.6 5.0 79 1.5 WSW 9 13 5 7 1025.2 1025.2 0.0
08/08:30am 8.3 5.8 4.7 78 1.6 W 7 11 4 6 1025.1 1025.1 0.0
08/08:00am 7.9 5.6 4.7 80 1.4 WNW 6 7 3 4 1024.7 1024.7 0.0
08/07:30am 6.5 4.1 4.3 86 1.0 WNW 6 9 3 5 1024.3 1024.3 0.0
08/07:00am 5.3 3.2 4.0 91 0.6 NW 4 6 2 3 1024.3 1024.3 0.0
08/06:30am 4.0 0.7 2.7 91 0.5 NE 9 11 5 6 1024.2 1024.2 0.0
08/06:00am 3.0 0.4 1.2 88 0.7 N 4 6 2 3 1024.0 1024.0 0.0
08/05:30am 5.7 2.4 2.7 81 1.2 W 9 11 5 6 1023.8 1023.8 0.0
08/05:00am 6.0 2.4 2.8 80 1.3 W 11 15 6 8 1023.9 1023.9 0.0
08/04:30am 5.8 2.1 2.4 79 1.4 W 11 13 6 7 1023.7 1023.7 0.0
08/04:00am 5.7 2.0 2.5 80 1.3 WSW 11 13 6 7 1023.5 1023.5 0.0
08/03:30am 5.5 2.5 2.3 80 1.3 WSW 7 11 4 6 1023.6 1023.6 0.0
08/03:00am 5.8 2.1 2.4 79 1.4 W 11 15 6 8 1023.8 1023.8 0.0
08/02:30am 5.7 2.0 2.5 80 1.3 W 11 13 6 7 1023.9 1023.9 0.0
08/02:00am 5.2 1.9 2.2 81 1.2 W 9 9 5 5 1024.0 1024.0 0.0
08/01:30am 4.8 1.8 2.2 83 1.1 W 7 9 4 5 1024.3 1024.3 0.0
08/01:00am 4.8 2.3 1.7 80 1.2 WNW 4 6 2 3 1024.5 1024.5 0.0
08/12:30am 5.7 2.9 2.0 77 1.5 W 6 9 3 5 1024.6 1024.6 0.0
08/12:00am 5.7 2.7 1.8 76 1.6 WSW 7 9 4 5 1024.6 1024.6 0.0
 
Date/Time
EST
Temp
°C
App
Temp
°C
Dew
Point
°C
Rel
Hum
%
Delta-T
°C
Wind Press
QNH
hPa
Press
MSL
hPa
Rain since
9am
mm
Dir  Spd
km/h
Gust
km/h
Spd
kts
Gust
kts
07/11:30pm 6.4 3.4 1.7 72 1.9 WSW 7 11 4 6 1024.7 1024.7 0.0
07/11:00pm 7.1 3.7 1.8 69 2.2 SW 9 13 5 7 1024.7 1024.7 0.0
07/10:30pm 7.8 4.0 1.9 66 2.5 SW 11 17 6 9 1024.8 1024.8 0.0
07/10:00pm 7.1 3.3 1.8 69 2.2 WSW 11 15 6 8 1024.8 1024.8 0.0
07/09:30pm 7.2 3.4 1.7 68 2.3 WSW 11 17 6 9 1024.6 1024.6 0.0
07/09:00pm 7.4 4.0 1.7 67 2.3 SW 9 13 5 7 1024.4 1024.4 0.0
07/08:30pm 7.5 4.5 1.1 64 2.6 SW 6 9 3 5 1024.3 1024.3 0.0
07/08:00pm 7.8 4.3 1.4 64 2.6 SW 9 13 5 7 1024.2 1024.2 0.0
07/07:30pm 8.5 4.6 1.4 61 2.9 SW 11 17 6 9 1024.2 1024.2 0.0
07/07:00pm 9.0 4.8 1.4 59 3.1 SSW 13 20 7 11 1024.0 1024.0 0.0
07/06:30pm 9.3 4.6 1.2 57 3.4 SSW 15 22 8 12 1023.6 1023.6 0.0
07/06:00pm 9.8 4.7 0.9 54 3.7 SW 17 24 9 13 1023.3 1023.3 0.0
07/05:30pm 10.4 4.7 0.7 51 4.0 SW 20 33 11 18 1022.8 1022.8 0.0
07/05:00pm 11.2 5.5 0.6 48 4.4 SW 20 28 11 15 1022.3 1022.4 0.0
07/04:30pm 11.9 6.5 1.0 47 4.6 SW 19 26 10 14 1022.0 1022.0 0.0
07/04:00pm 12.3 6.6 0.7 45 4.9 SW 20 35 11 19 1021.9 1021.9 0.0
07/03:30pm 12.3 5.9 0.7 45 4.9 SW 24 41 13 22 1021.8 1021.8 0.0
07/03:00pm 12.5 5.2 0.3 43 5.1 SSW 28 39 15 21 1021.7 1021.7 0.0
07/02:30pm 13.0 7.1 1.4 45 5.0 SW 22 37 12 20 1021.7 1021.7 0.0
07/02:00pm 12.5 6.6 1.5 47 4.7 SW 22 32 12 17 1021.5 1021.5 0.0
07/01:30pm 12.9 6.6 1.6 46 4.9 SW 24 33 13 18 1021.6 1021.6 0.0
07/01:00pm 12.8 6.2 1.8 47 4.8 SW 26 43 14 23 1021.5 1021.5 0.0
07/12:30pm 11.9 5.7 2.1 51 4.3 SW 24 37 13 20 1021.7 1021.7 0.0
07/12:05pm 11.8 4.8 1.7 50 4.4 WSW 28 50 15 27 1022.0 1022.0 0.0
07/12:00pm 11.9 5.3 2.1 51 4.2 WSW 26 37 14 20 1021.9 1021.9 0.0
07/11:30am 11.3 4.7 2.1 53 4.0 SW 26 37 14 20 1022.1 1022.2 0.0
07/11:00am 11.2 5.1 2.5 55 3.8 WSW 24 33 13 18 1022.0 1022.0 0.0
07/10:30am 10.5 3.1 1.9 55 3.7 SW 30 43 16 23 1022.1 1022.2 0.0
07/10:00am 10.2 3.2 2.1 57 3.5 SW 28 43 15 23 1022.0 1022.0 0.0
07/09:30am 9.6 1.8 1.8 58 3.3 SW 32 44 17 24 1021.8 1021.8 0.0
07/09:00am 9.3 2.7 1.9 60 3.1 SW 26 43 14 23 1021.6 1021.6 0.0
07/08:30am 9.4 3.4 3.6 67 2.6 SW 24 37 13 20 1021.1 1021.1 0.0
07/08:00am 9.3 4.4 5.3 76 1.8 SW 20 32 11 17 1020.4 1020.4 0.0
07/07:34am 9.5 3.1 5.1 74 2.0 SW 28 46 15 25 1019.9 1019.9 0.0
07/07:30am 9.5 3.5 5.5 76 1.8 SW 26 44 14 24 1019.8 1019.8 0.0
07/07:00am 10.0 3.9 6.7 80 1.6 SW 28 43 15 23 1019.1 1019.1 0.0
07/06:45am 10.8 5.2 8.6 86 1.1 WSW 28 48 15 26 1018.7 1018.7 0.0
07/06:30am 10.7 6.3 9.0 89 0.9 WSW 22 32 12 17 1018.3 1018.2 0.0
07/06:00am 10.3 6.9 9.1 92 0.6 WSW 17 26 9 14 1018.2 1018.1 0.0
07/05:30am 10.0 6.4 8.4 90 0.8 W 17 22 9 12 1018.2 1018.1 0.0
07/05:00am 10.3 7.5 8.4 88 0.9 W 13 28 7 15 1018.0 1017.9 0.0
07/04:30am 8.7 7.1 7.8 94 0.4 NNW 6 9 3 5 1018.0 1017.9 0.0
07/04:00am 8.8 7.0 7.9 94 0.4 NW 7 9 4 5 1018.0 1017.9 0.0
07/03:30am 8.8 7.2 7.9 94 0.4 WNW 6 9 3 5 1018.3 1018.2 0.0
07/03:00am 9.1 7.5 7.9 92 0.6 NNW 6 6 3 3 1018.3 1018.2 0.0
07/02:30am 8.5 7.0 6.6 88 0.9 WNW 4 6 2 3 1018.7 1018.7 0.0
07/02:00am 10.0 7.8 7.8 86 1.1 WSW 9 13 5 7 1019.0 1019.0 0.0
07/01:30am 8.4 6.1 7.6 95 0.4 W 9 11 5 6 1019.1 1019.1 0.0
07/01:00am 7.7 6.9 6.5 92 0.6 CALM 0 0 0 0 1019.0 1019.0 0.0
07/12:30am 9.2 7.4 7.2 87 1.0 WSW 6 7 3 4 1019.3 1019.3 0.0
07/12:00am 9.8 7.9 7.4 85 1.2 WSW 7 9 4 5 1019.4 1019.4 0.0
 
Date/Time
EST
Temp
°C
App
Temp
°C
Dew
Point
°C
Rel
Hum
%
Delta-T
°C
Wind Press
QNH
hPa
Press
MSL
hPa
Rain since
9am
mm
Dir  Spd
km/h
Gust
km/h
Spd
kts
Gust
kts
06/11:30pm 10.6 8.8 7.8 83 1.4 SW 7 9 4 5 1019.4 1019.4 0.0
06/11:00pm 10.7 8.8 7.6 81 1.5 SW 7 9 4 5 1019.5 1019.5 0.0
06/10:30pm 11.7 9.5 8.0 78 1.8 SW 9 13 5 7 1019.7 1019.7 0.0
06/10:00pm 12.4 9.5 8.1 75 2.1 SSW 13 19 7 10 1019.8 1019.8 0.0
06/09:30pm 12.8 9.9 8.3 74 2.3 SW 13 19 7 10 1019.9 1019.9 0.0
06/09:00pm 13.1 10.7 8.8 75 2.2 SW 11 17 6 9 1019.8 1019.8 0.0
06/08:30pm 12.3 10.7 8.6 78 1.9 SSW 7 11 4 6 1019.7 1019.7 0.0
06/08:00pm 12.6 11.0 8.9 78 1.9 SW 7 9 4 5 1019.6 1019.6 0.0
06/07:30pm 12.5 10.5 8.8 78 1.9 SW 9 11 5 6 1019.5 1019.5 0.0
06/07:00pm 12.3 10.7 8.6 78 1.9 SW 7 11 4 6 1019.4 1019.4 0.0
06/06:30pm 13.3 12.4 9.2 76 2.1 SW 4 6 2 3 1019.3 1019.3 0.0

Other formats

Comma delimited format used in spreadsheet applications
http://www.bom.gov.au/fwo/IDN60801/IDN60801.94715.axf

JavaScript Object Notation format (JSON) in row-major order
http://www.bom.gov.au/fwo/IDN60801/IDN60801.94715.json

Data quality

Most of these data are generated automatically and are frequently updated. Quality checks on data are not normally performed. It is possible for incorrect values to appear. Refer to information at About Latest Weather Observations and please check the disclaimer before using these data.